createdAt,value
2023-02-10T00:01:04.805Z,18.90
2023-02-10T00:03:33.270Z,17.40
2023-02-10T00:06:01.310Z,17.90
2023-02-10T00:08:31.310Z,16.58
2023-02-10T00:11:00.134Z,16.40
2023-02-10T00:13:28.385Z,16.88
2023-02-10T00:15:58.710Z,17.17
2023-02-10T00:18:26.876Z,16.85
2023-02-10T00:20:54.621Z,16.58
2023-02-10T00:23:22.337Z,17.33
2023-02-10T00:25:51.384Z,18.65
2023-02-10T00:28:24.934Z,17.23
2023-02-10T00:30:52.648Z,17.73
2023-02-10T00:33:20.346Z,16.25
2023-02-10T00:35:48.240Z,18.23
2023-02-10T00:38:16.119Z,16.83
2023-02-10T00:40:43.823Z,17.35
2023-02-10T00:43:12.907Z,16.88
2023-02-10T00:45:40.653Z,16.60
2023-02-10T00:48:08.356Z,17.25
2023-02-10T00:50:36.069Z,16.70
2023-02-10T00:53:03.796Z,17.70
2023-02-10T00:55:31.599Z,16.98
2023-02-10T00:57:59.312Z,17.35
2023-02-10T01:00:28.548Z,16.90
2023-02-10T01:02:58.018Z,16.20
2023-02-10T01:05:25.730Z,17.25
2023-02-10T01:07:53.828Z,16.90
2023-02-10T01:10:22.275Z,16.80
2023-02-10T01:12:50.072Z,17.00
2023-02-10T01:15:18.177Z,16.55
2023-02-10T01:17:47.286Z,16.35
2023-02-10T01:20:15.060Z,16.05
2023-02-10T01:22:42.802Z,15.32
2023-02-10T01:25:12.996Z,16.42
2023-02-10T01:27:41.340Z,15.40
2023-02-10T01:30:10.333Z,14.65
2023-02-10T01:32:38.113Z,16.50
2023-02-10T01:35:07.885Z,15.27
2023-02-10T01:37:37.535Z,14.77
2023-02-10T01:40:05.959Z,15.13
2023-02-10T01:42:33.728Z,15.60
2023-02-10T01:45:24.822Z,15.25
2023-02-10T01:47:54.195Z,15.60
2023-02-10T01:50:26.908Z,16.45
2023-02-10T01:52:55.439Z,16.27
2023-02-10T01:55:27.312Z,15.35
2023-02-10T01:57:55.432Z,15.10
2023-02-10T02:00:24.670Z,15.73
2023-02-10T02:02:52.603Z,14.65
2023-02-10T02:05:29.918Z,14.93
2023-02-10T02:08:01.454Z,15.30
2023-02-10T02:10:43.049Z,15.63
2023-02-10T02:13:18.469Z,14.15
2023-02-10T02:15:53.337Z,14.73
2023-02-10T02:18:31.781Z,16.17
2023-02-10T02:21:24.675Z,15.25
2023-02-10T02:24:19.971Z,15.00
2023-02-10T02:26:58.187Z,15.60
2023-02-10T02:29:57.168Z,13.95
2023-02-10T02:32:29.156Z,14.52
2023-02-10T02:35:03.470Z,15.00
2023-02-10T02:37:33.584Z,14.98
2023-02-10T02:40:03.114Z,15.20
2023-02-10T02:42:32.254Z,14.90
2023-02-10T02:45:03.948Z,15.10
2023-02-10T02:47:45.849Z,14.90
2023-02-10T02:50:24.552Z,15.03
2023-02-10T02:53:11.789Z,17.02
2023-02-10T02:55:52.939Z,16.00
2023-02-10T02:58:28.772Z,15.30
2023-02-10T03:01:03.782Z,15.25
2023-02-10T03:03:34.375Z,17.05
2023-02-10T03:06:05.508Z,16.33
2023-02-10T03:08:39.178Z,16.17
2023-02-10T03:11:06.846Z,15.30
2023-02-10T03:13:34.590Z,14.55
2023-02-10T03:16:02.392Z,15.25
2023-02-10T03:18:30.145Z,15.27
2023-02-10T03:20:59.248Z,13.80
2023-02-10T03:23:27.070Z,15.65
2023-02-10T03:25:54.821Z,14.63
2023-02-10T03:28:22.563Z,14.02
2023-02-10T03:30:50.526Z,14.67
2023-02-10T03:33:19.399Z,14.57
2023-02-10T03:35:48.362Z,14.77
2023-02-10T03:38:20.811Z,14.38
2023-02-10T03:40:51.724Z,15.77
2023-02-10T03:43:19.533Z,14.95
2023-02-10T03:45:47.979Z,13.05
2023-02-10T03:48:16.988Z,15.30
2023-02-10T03:50:44.988Z,13.30
2023-02-10T03:53:13.417Z,13.52
2023-02-10T03:55:42.544Z,12.82
2023-02-10T03:58:10.247Z,14.10
2023-02-10T04:00:38.220Z,13.50
2023-02-10T04:03:05.954Z,14.05
2023-02-10T04:05:33.733Z,14.67
2023-02-10T04:08:01.466Z,14.80
2023-02-10T04:10:29.507Z,14.52
2023-02-10T04:12:58.825Z,14.75
2023-02-10T04:15:26.626Z,14.77
2023-02-10T04:17:54.475Z,13.63
2023-02-10T04:20:22.203Z,13.80
2023-02-10T04:22:50.432Z,13.05
2023-02-10T04:25:18.506Z,12.60
2023-02-10T04:27:46.506Z,11.93
2023-02-10T04:30:18.992Z,13.27
2023-02-10T04:32:46.697Z,12.70
2023-02-10T04:35:14.432Z,13.15
2023-02-10T04:37:42.165Z,12.45
2023-02-10T04:40:10.805Z,12.18
2023-02-10T04:42:39.268Z,12.90
2023-02-10T04:45:07.979Z,11.70
2023-02-10T04:47:37.090Z,12.32
2023-02-10T04:50:05.495Z,12.73
2023-02-10T04:52:33.233Z,11.98
2023-02-10T04:55:07.583Z,10.70
2023-02-10T04:57:35.275Z,13.00
2023-02-10T05:00:03.051Z,11.60
2023-02-10T05:02:30.867Z,11.75
2023-02-10T05:05:00.504Z,11.07
2023-02-10T05:07:28.284Z,11.00
2023-02-10T05:09:58.133Z,11.35
2023-02-10T05:12:26.722Z,12.35
2023-02-10T05:14:54.447Z,11.38
2023-02-10T05:17:22.232Z,11.05
2023-02-10T05:19:49.964Z,11.27
2023-02-10T05:22:19.128Z,12.18
2023-02-10T05:24:46.868Z,11.77
2023-02-10T05:27:14.633Z,12.90
2023-02-10T05:29:42.401Z,11.73
2023-02-10T05:32:10.252Z,10.65
2023-02-10T05:34:38.034Z,11.80
2023-02-10T05:37:05.750Z,11.25
2023-02-10T05:39:36.932Z,11.38
2023-02-10T05:42:05.025Z,11.43
2023-02-10T05:44:36.318Z,10.68
2023-02-10T05:47:04.621Z,11.32
2023-02-10T05:49:32.338Z,11.98
2023-02-10T05:52:00.557Z,11.68
2023-02-10T05:54:28.452Z,11.68
2023-02-10T05:56:57.707Z,11.38
2023-02-10T05:59:25.499Z,11.20
2023-02-10T06:01:56.782Z,10.65
2023-02-10T06:04:24.533Z,11.27
2023-02-10T06:06:52.755Z,11.37
2023-02-10T06:09:23.429Z,11.53
2023-02-10T06:11:51.860Z,10.73
2023-02-10T06:14:21.099Z,11.05
2023-02-10T06:16:48.927Z,12.00
2023-02-10T06:19:19.521Z,12.23
2023-02-10T06:21:48.137Z,12.33
2023-02-10T06:24:15.907Z,12.17
2023-02-10T06:26:43.679Z,13.50
2023-02-10T06:29:11.371Z,14.50
2023-02-10T06:31:40.488Z,13.40
2023-02-10T06:34:09.247Z,12.50
2023-02-10T06:36:36.960Z,12.03
2023-02-10T06:39:04.925Z,11.80
2023-02-10T06:41:32.626Z,11.90
2023-02-10T06:44:00.368Z,11.53
2023-02-10T06:46:28.184Z,11.50
2023-02-10T06:48:57.341Z,11.50
2023-02-10T06:51:25.021Z,12.02
2023-02-10T06:53:52.831Z,11.88
2023-02-10T06:56:20.725Z,10.80
2023-02-10T06:58:48.444Z,10.95
2023-02-10T07:01:19.468Z,10.93
2023-02-10T07:03:47.245Z,10.93
2023-02-10T07:06:19.198Z,10.90
2023-02-10T07:08:47.853Z,10.75
2023-02-10T07:11:15.697Z,11.43
2023-02-10T07:13:43.775Z,10.95
2023-02-10T07:16:15.426Z,10.00
2023-02-10T07:18:43.359Z,10.07
2023-02-10T07:21:11.163Z,10.73
2023-02-10T07:23:40.231Z,9.85
2023-02-10T07:26:09.499Z,10.57
2023-02-10T07:28:37.251Z,10.88
2023-02-10T07:31:05.214Z,11.48
2023-02-10T07:33:33.006Z,10.93
2023-02-10T07:36:03.221Z,11.38
2023-02-10T07:38:31.547Z,10.43
2023-02-10T07:41:00.855Z,10.52
2023-02-10T07:43:28.537Z,9.50
2023-02-10T07:45:56.383Z,9.63
2023-02-10T07:48:24.964Z,9.95
2023-02-10T07:50:53.295Z,9.32
2023-02-10T07:53:23.123Z,9.60
2023-02-10T07:55:51.435Z,10.02
2023-02-10T07:58:20.648Z,9.55
2023-02-10T08:00:48.653Z,9.27
2023-02-10T08:03:16.833Z,9.30
2023-02-10T08:05:44.738Z,10.15
2023-02-10T08:08:14.197Z,9.52
2023-02-10T08:10:43.193Z,8.55
2023-02-10T08:13:10.966Z,9.95
2023-02-10T08:15:40.330Z,8.90
2023-02-10T08:18:08.124Z,9.13
2023-02-10T08:20:35.883Z,10.15
2023-02-10T08:23:04.040Z,10.13
2023-02-10T08:25:31.742Z,9.90
2023-02-10T08:28:00.179Z,9.13
2023-02-10T08:30:27.989Z,9.73
2023-02-10T08:32:57.147Z,9.85
2023-02-10T08:35:24.942Z,9.65
2023-02-10T08:37:53.033Z,8.93
2023-02-10T08:40:20.909Z,9.82
2023-02-10T08:42:49.178Z,9.65
2023-02-10T08:45:16.943Z,10.27
2023-02-10T08:47:44.761Z,9.48
2023-02-10T08:50:13.911Z,10.50
2023-02-10T08:52:41.726Z,9.95
2023-02-10T08:55:09.561Z,15.65
2023-02-10T08:57:38.364Z,11.77
2023-02-10T09:00:07.363Z,12.45
2023-02-10T09:02:35.195Z,13.50
2023-02-10T09:05:10.139Z,11.90
2023-02-10T09:07:40.086Z,11.63
2023-02-10T09:10:11.060Z,12.30
2023-02-10T09:12:39.071Z,12.38
2023-02-10T09:15:07.500Z,11.70
2023-02-10T09:17:35.331Z,12.05
2023-02-10T09:20:03.203Z,12.15
2023-02-10T09:22:30.962Z,14.25
2023-02-10T09:25:00.659Z,13.65
2023-02-10T09:27:28.481Z,11.80
2023-02-10T09:29:56.186Z,13.55
2023-02-10T09:32:24.208Z,13.18
2023-02-10T09:34:52.423Z,14.43
2023-02-10T09:37:20.189Z,14.30
2023-02-10T09:39:47.911Z,13.25
2023-02-10T09:42:28.158Z,13.52
2023-02-10T09:45:00.920Z,15.52
2023-02-10T09:47:48.865Z,20.33
2023-02-10T09:50:49.184Z,17.42
2023-02-10T09:53:21.167Z,17.45
2023-02-10T09:55:51.632Z,16.58
2023-02-10T09:58:31.956Z,18.63
2023-02-10T10:01:05.033Z,18.25
2023-02-10T10:03:40.740Z,20.13
2023-02-10T10:06:16.438Z,19.08
2023-02-10T10:08:54.103Z,21.38
2023-02-10T10:11:27.199Z,20.77
2023-02-10T10:13:57.984Z,21.80
2023-02-10T10:16:44.583Z,21.10
2023-02-10T10:19:23.444Z,21.75
2023-02-10T10:22:03.129Z,22.15
2023-02-10T10:24:44.944Z,22.58
2023-02-10T10:27:22.299Z,21.55
2023-02-10T10:29:57.959Z,24.20
2023-02-10T10:32:39.210Z,23.45
2023-02-10T10:35:15.972Z,23.15
2023-02-10T10:37:44.133Z,22.40
2023-02-10T10:40:19.058Z,22.65
2023-02-10T10:42:49.529Z,23.08
2023-02-10T10:45:24.892Z,23.35
2023-02-10T10:47:57.012Z,24.95
2023-02-10T10:50:25.553Z,22.95
2023-02-10T10:52:55.388Z,24.15
2023-02-10T10:55:27.176Z,25.45
2023-02-10T10:57:57.343Z,23.25
2023-02-10T11:00:30.109Z,22.60
2023-02-10T11:03:00.498Z,23.17
2023-02-10T11:05:32.866Z,23.10
2023-02-10T11:08:01.340Z,22.60
2023-02-10T11:10:35.009Z,22.30
2023-02-10T11:13:04.632Z,20.50
2023-02-10T11:15:40.591Z,22.95
2023-02-10T11:18:16.065Z,22.48
2023-02-10T11:23:21.116Z,21.05
2023-02-10T11:25:58.591Z,21.52
2023-02-10T11:28:28.257Z,21.10
2023-02-10T11:31:01.382Z,20.38
2023-02-10T11:33:33.315Z,20.17
2023-02-10T11:36:05.279Z,20.80
2023-02-10T11:38:34.310Z,19.70
2023-02-10T11:41:06.051Z,20.30
2023-02-10T11:43:37.763Z,20.50
2023-02-10T11:46:10.638Z,21.05
2023-02-10T11:48:38.837Z,21.23
2023-02-10T11:51:09.086Z,18.40
2023-02-10T11:53:41.090Z,19.75
2023-02-10T11:56:17.654Z,20.35
2023-02-10T11:59:06.252Z,19.92
2023-02-10T12:01:54.351Z,19.48
2023-02-10T12:04:39.191Z,19.08
2023-02-10T12:07:17.595Z,19.15
2023-02-10T12:09:50.234Z,17.67
2023-02-10T12:12:24.134Z,20.58
2023-02-10T12:15:00.110Z,18.02
2023-02-10T12:17:32.032Z,18.10
2023-02-10T12:20:14.852Z,17.98
2023-02-10T12:22:56.419Z,18.30
2023-02-10T12:25:28.442Z,18.02
2023-02-10T12:28:10.294Z,19.58
2023-02-10T12:30:47.101Z,17.73
2023-02-10T12:33:41.579Z,16.85
2023-02-10T12:36:16.538Z,16.60
2023-02-10T12:38:57.563Z,16.05
2023-02-10T12:41:35.863Z,16.35
2023-02-10T12:44:18.652Z,16.38
2023-02-10T12:49:26.777Z,16.17
2023-02-10T12:52:03.902Z,16.00
2023-02-10T12:54:45.698Z,15.70
2023-02-10T12:57:20.373Z,16.35
2023-02-10T12:59:56.531Z,15.00
2023-02-10T13:02:31.021Z,15.27
2023-02-10T13:05:06.275Z,14.40
2023-02-10T13:07:43.008Z,15.73
2023-02-10T13:10:20.665Z,15.05
2023-02-10T13:12:50.136Z,15.68
2023-02-10T13:15:23.140Z,16.75
2023-02-10T13:17:52.997Z,16.75
2023-02-10T13:20:36.848Z,17.83
2023-02-10T13:23:18.552Z,16.55
2023-02-10T13:26:03.562Z,17.50
2023-02-10T13:28:42.087Z,17.30
2023-02-10T13:31:28.297Z,15.60
2023-02-10T13:34:04.289Z,17.58
2023-02-10T13:36:36.865Z,17.02
2023-02-10T13:39:08.248Z,16.25
2023-02-10T13:41:43.668Z,16.15
2023-02-10T13:44:26.575Z,15.68
2023-02-10T13:47:01.494Z,15.13
2023-02-10T13:49:29.550Z,17.02
2023-02-10T13:52:18.135Z,17.63
2023-02-10T13:54:56.105Z,17.40
2023-02-10T13:57:30.671Z,15.88
2023-02-10T14:00:19.523Z,16.97
2023-02-10T14:03:01.247Z,16.17
2023-02-10T14:05:32.256Z,15.65
2023-02-10T14:08:27.703Z,16.58
2023-02-10T14:10:59.795Z,17.50
2023-02-10T14:13:30.723Z,16.17
2023-02-10T14:16:01.785Z,15.57
2023-02-10T14:18:32.105Z,16.27
2023-02-10T14:21:02.494Z,14.43
2023-02-10T14:23:34.207Z,15.00
2023-02-10T14:26:04.533Z,15.07
2023-02-10T14:28:36.330Z,14.43
2023-02-10T14:31:08.595Z,13.80
2023-02-10T14:33:37.378Z,14.75
2023-02-10T14:36:16.180Z,16.90
2023-02-10T14:38:47.778Z,18.10
2023-02-10T14:41:20.803Z,18.13
2023-02-10T14:43:52.615Z,17.02
2023-02-10T14:46:23.817Z,19.25
2023-02-10T14:48:58.240Z,18.52
2023-02-10T14:51:27.989Z,19.45
2023-02-10T14:53:59.235Z,20.33
2023-02-10T14:56:29.091Z,20.27
2023-02-10T14:58:59.229Z,20.70
2023-02-10T15:01:29.482Z,20.48
2023-02-10T15:03:58.772Z,20.35
2023-02-10T15:06:29.493Z,20.67
2023-02-10T15:09:02.095Z,19.70
2023-02-10T15:11:50.854Z,21.48
2023-02-10T15:14:22.995Z,21.60
2023-02-10T15:16:52.552Z,20.23
2023-02-10T15:19:20.676Z,20.63
2023-02-10T15:21:50.505Z,19.98
2023-02-10T15:24:29.120Z,21.65
2023-02-10T15:26:57.326Z,21.15
2023-02-10T15:29:25.197Z,19.83
2023-02-10T15:31:58.382Z,20.83
2023-02-10T15:34:28.902Z,21.00
2023-02-10T15:37:01.791Z,21.17
2023-02-10T15:39:34.027Z,21.35
2023-02-10T15:42:08.171Z,22.02
2023-02-10T15:44:40.405Z,20.50
2023-02-10T15:47:23.371Z,22.88
2023-02-10T15:49:55.649Z,22.80
2023-02-10T15:52:26.701Z,22.45
2023-02-10T15:54:58.424Z,21.17
2023-02-10T15:57:26.173Z,22.80
2023-02-10T15:59:54.943Z,22.00
2023-02-10T16:02:26.267Z,21.48
2023-02-10T16:04:54.675Z,21.75
2023-02-10T16:07:27.442Z,23.63
2023-02-10T16:09:57.546Z,23.17
2023-02-10T16:12:25.852Z,23.30
2023-02-10T16:14:55.133Z,22.05
2023-02-10T16:17:26.145Z,22.48
2023-02-10T16:19:54.083Z,23.77
2023-02-10T16:22:22.476Z,24.58
2023-02-10T16:24:50.253Z,22.63
2023-02-10T16:27:19.339Z,23.02
2023-02-10T16:29:48.070Z,22.25
2023-02-10T16:32:15.995Z,23.40
2023-02-10T16:34:43.731Z,22.00
2023-02-10T16:37:19.664Z,22.35
2023-02-10T16:39:59.213Z,22.17
2023-02-10T16:42:28.285Z,21.20
2023-02-10T16:44:55.982Z,20.85
2023-02-10T16:47:23.991Z,19.80
2023-02-10T16:49:51.902Z,20.67
2023-02-10T16:52:22.141Z,21.33
2023-02-10T16:54:50.273Z,20.73
2023-02-10T16:57:18.149Z,20.30
2023-02-10T16:59:50.168Z,20.58
2023-02-10T17:02:20.743Z,18.88
2023-02-10T17:04:48.563Z,19.73
2023-02-10T17:07:16.871Z,19.35
2023-02-10T17:09:44.736Z,19.02
2023-02-10T17:12:12.509Z,21.35
2023-02-10T17:14:40.223Z,21.10
2023-02-10T17:17:09.452Z,21.50
2023-02-10T17:19:37.267Z,23.15
2023-02-10T17:22:05.802Z,20.55
2023-02-10T17:24:33.571Z,21.45
2023-02-10T17:27:01.345Z,21.00
2023-02-10T17:29:29.126Z,20.48
2023-02-10T17:31:58.795Z,22.15
2023-02-10T17:34:34.153Z,21.30
2023-02-10T17:37:06.444Z,21.02
2023-02-10T17:39:51.003Z,22.88
2023-02-10T17:42:21.062Z,21.80
2023-02-10T17:44:48.823Z,21.05
2023-02-10T17:47:16.798Z,20.30
2023-02-10T17:49:48.796Z,20.08
2023-02-10T17:52:16.574Z,20.33
2023-02-10T17:54:44.321Z,18.00
2023-02-10T17:57:15.391Z,18.27
2023-02-10T17:59:44.072Z,19.17
2023-02-10T18:02:13.319Z,19.98
2023-02-10T18:04:41.636Z,21.38
2023-02-10T18:07:13.856Z,20.70
2023-02-10T18:09:42.479Z,18.75
2023-02-10T18:12:12.567Z,19.80
2023-02-10T18:14:40.469Z,18.67
2023-02-10T18:17:09.967Z,20.45
2023-02-10T18:19:39.249Z,20.63
2023-02-10T18:22:07.435Z,20.20
2023-02-10T18:24:37.654Z,19.73
2023-02-10T18:27:06.420Z,19.67
2023-02-10T18:29:34.141Z,19.73
2023-02-10T18:32:01.897Z,20.10
2023-02-10T18:34:29.634Z,19.27
2023-02-10T18:36:57.379Z,19.52
2023-02-10T18:39:25.055Z,18.38
2023-02-10T18:41:54.193Z,19.73
2023-02-10T18:44:21.924Z,19.00
2023-02-10T18:46:49.722Z,20.38
2023-02-10T18:49:17.455Z,20.85
2023-02-10T18:51:45.950Z,20.42
2023-02-10T18:54:13.692Z,19.55
2023-02-10T18:56:41.408Z,20.88
2023-02-10T18:59:10.504Z,20.23
2023-02-10T19:01:41.058Z,21.13
2023-02-10T19:04:08.833Z,21.08
2023-02-10T19:06:36.631Z,20.67
2023-02-10T19:09:04.551Z,27.75
2023-02-10T19:11:32.285Z,27.23
2023-02-10T19:13:59.984Z,27.20
2023-02-10T19:16:29.443Z,21.73
2023-02-10T19:18:57.203Z,20.25
2023-02-10T19:21:24.906Z,22.42
2023-02-10T19:23:52.915Z,21.02
2023-02-10T19:26:20.652Z,21.35
2023-02-10T19:28:48.397Z,22.48
2023-02-10T19:31:16.867Z,21.13
2023-02-10T19:33:48.028Z,20.63
2023-02-10T19:36:17.216Z,26.17
2023-02-10T19:38:45.151Z,25.65
2023-02-10T19:41:16.782Z,25.40
2023-02-10T19:43:45.138Z,26.33
2023-02-10T19:46:13.723Z,26.77
2023-02-10T19:48:41.779Z,29.80
2023-02-10T19:51:13.252Z,33.58
2023-02-10T19:53:41.579Z,41.50
2023-02-10T19:56:10.827Z,29.50
2023-02-10T19:58:39.489Z,26.58
2023-02-10T20:01:09.364Z,22.35
2023-02-10T20:03:37.174Z,20.90
2023-02-10T20:06:06.306Z,22.35
2023-02-10T20:08:35.769Z,21.88
2023-02-10T20:11:03.542Z,22.42
2023-02-10T20:13:31.574Z,22.10
2023-02-10T20:16:00.466Z,21.50
2023-02-10T20:18:28.220Z,20.45
2023-02-10T20:21:00.846Z,23.20
2023-02-10T20:23:30.101Z,24.88
2023-02-10T20:25:59.560Z,23.92
2023-02-10T20:28:29.355Z,21.15
2023-02-10T20:30:58.684Z,21.48
2023-02-10T20:33:27.889Z,19.83
2023-02-10T20:35:58.948Z,19.05
2023-02-10T20:38:27.669Z,19.65
2023-02-10T20:41:01.024Z,18.98
2023-02-10T20:43:29.978Z,18.77
2023-02-10T20:45:58.427Z,19.88
2023-02-10T20:48:28.961Z,19.40
2023-02-10T20:51:00.677Z,20.15
2023-02-10T20:53:29.877Z,20.15
2023-02-10T20:56:00.506Z,19.05
2023-02-10T20:58:29.779Z,19.58
2023-02-10T21:01:01.952Z,20.17
2023-02-10T21:03:30.845Z,19.52
2023-02-10T21:06:08.520Z,19.85
2023-02-10T21:08:37.964Z,19.75
2023-02-10T21:11:10.432Z,18.48
2023-02-10T21:13:39.440Z,19.48
2023-02-10T21:16:11.130Z,20.58
2023-02-10T21:18:39.455Z,20.08
2023-02-10T21:21:09.633Z,20.50
2023-02-10T21:23:37.880Z,20.67
2023-02-10T21:26:08.152Z,19.88
2023-02-10T21:28:37.781Z,20.08
2023-02-10T21:31:09.960Z,19.52
2023-02-10T21:33:38.440Z,21.15
2023-02-10T21:36:08.324Z,19.13
2023-02-10T21:38:36.336Z,18.42
2023-02-10T21:41:05.447Z,19.50
2023-02-10T21:43:34.777Z,19.63
2023-02-10T21:46:02.716Z,18.60
2023-02-10T21:48:30.687Z,19.70
2023-02-10T21:50:59.885Z,19.83
2023-02-10T21:53:27.918Z,22.20
2023-02-10T21:55:55.803Z,23.33
2023-02-10T21:58:24.079Z,25.33
2023-02-10T22:00:53.368Z,26.88
2023-02-10T22:03:22.310Z,27.48
2023-02-10T22:05:55.505Z,27.10
2023-02-10T22:08:23.864Z,26.92
2023-02-10T22:10:51.713Z,25.02
2023-02-10T22:13:19.594Z,22.15
2023-02-10T22:15:54.034Z,23.85
2023-02-10T22:18:22.188Z,23.70
2023-02-10T22:20:49.877Z,21.25
2023-02-10T22:23:17.588Z,24.23
2023-02-10T22:25:45.952Z,22.80
2023-02-10T22:28:16.133Z,21.55
2023-02-10T22:30:44.269Z,21.95
2023-02-10T22:33:14.199Z,21.85
2023-02-10T22:35:42.069Z,21.08
2023-02-10T22:38:09.757Z,22.00
2023-02-10T22:40:41.229Z,22.10
2023-02-10T22:43:09.633Z,21.70
2023-02-10T22:45:37.937Z,20.90
2023-02-10T22:48:06.732Z,21.20
2023-02-10T22:50:35.794Z,20.75
2023-02-10T22:53:03.567Z,20.02
2023-02-10T23:01:14.325Z,20.75
2023-02-10T23:03:42.196Z,21.10
2023-02-10T23:06:10.112Z,21.20
2023-02-10T23:08:37.836Z,19.58
2023-02-10T23:11:05.721Z,21.60
2023-02-10T23:13:35.783Z,21.35
2023-02-10T23:16:03.877Z,20.77
2023-02-10T23:18:33.181Z,19.98
2023-02-10T23:21:01.149Z,19.65
2023-02-10T23:23:28.853Z,20.60
2023-02-10T23:25:56.656Z,19.48
2023-02-10T23:28:24.819Z,21.20
2023-02-10T23:30:55.694Z,19.63
2023-02-10T23:33:23.503Z,21.33
2023-02-10T23:35:56.613Z,20.63
2023-02-10T23:38:24.421Z,19.23
2023-02-10T23:40:52.617Z,19.75
2023-02-10T23:43:20.492Z,19.40
2023-02-10T23:45:48.624Z,19.00
2023-02-10T23:48:16.671Z,18.27
2023-02-10T23:50:44.870Z,18.60
2023-02-10T23:53:13.962Z,19.00
2023-02-10T23:55:42.506Z,18.33
2023-02-10T23:58:12.410Z,19.33
